createdAt,value
2023-01-12T00:00:23.973Z,0
2023-01-12T00:02:03.711Z,0
2023-01-12T00:03:43.461Z,0
2023-01-12T00:05:23.242Z,0
2023-01-12T00:07:03.011Z,0
2023-01-12T00:08:42.769Z,0
2023-01-12T00:10:22.555Z,0
2023-01-12T00:12:02.305Z,0
2023-01-12T00:13:42.076Z,0
2023-01-12T00:15:21.849Z,0
2023-01-12T00:17:01.613Z,0
2023-01-12T00:18:41.373Z,0
2023-01-12T00:20:21.144Z,0
2023-01-12T00:22:00.903Z,0
2023-01-12T00:23:40.664Z,0
2023-01-12T00:25:20.436Z,0
2023-01-12T00:27:00.200Z,0
2023-01-12T00:28:39.978Z,0
2023-01-12T00:30:19.733Z,0
2023-01-12T00:31:59.517Z,0
2023-01-12T00:33:39.290Z,0
2023-01-12T00:35:19.033Z,0
2023-01-12T00:36:58.812Z,0
2023-01-12T00:38:38.589Z,0
2023-01-12T00:40:18.338Z,0
2023-01-12T00:41:58.098Z,0
2023-01-12T00:43:37.883Z,0
2023-01-12T00:45:17.653Z,0
2023-01-12T00:46:57.414Z,0
2023-01-12T00:48:37.180Z,0
2023-01-12T00:50:16.943Z,0
2023-01-12T00:51:56.717Z,0
2023-01-12T00:53:36.484Z,0
2023-01-12T00:55:16.266Z,0
2023-01-12T00:56:56.025Z,0
2023-01-12T00:58:35.797Z,0
2023-01-12T01:00:15.560Z,0
2023-01-12T01:01:55.373Z,0
2023-01-12T01:03:35.098Z,0
2023-01-12T01:05:14.869Z,0
2023-01-12T01:06:54.627Z,0
2023-01-12T01:08:34.397Z,0
2023-01-12T01:10:14.153Z,0
2023-01-12T01:11:53.918Z,0
2023-01-12T01:13:33.686Z,0
2023-01-12T01:15:13.457Z,0
2023-01-12T01:16:53.226Z,0
2023-01-12T01:18:32.992Z,0
2023-01-12T01:20:12.776Z,0
2023-01-12T01:21:52.667Z,0
2023-01-12T01:23:32.298Z,0
2023-01-12T01:25:12.081Z,0
2023-01-12T01:26:51.835Z,0
2023-01-12T01:28:31.592Z,0
2023-01-12T01:30:11.379Z,0
2023-01-12T01:31:51.121Z,0
2023-01-12T01:33:30.888Z,0
2023-01-12T01:35:10.724Z,0
2023-01-12T01:36:50.427Z,0
2023-01-12T01:38:30.212Z,0
2023-01-12T01:40:09.976Z,0
2023-01-12T01:41:49.729Z,0
2023-01-12T01:43:29.517Z,0
2023-01-12T01:45:09.275Z,0
2023-01-12T01:46:49.069Z,0
2023-01-12T01:48:28.811Z,0
2023-01-12T01:50:08.575Z,0
2023-01-12T01:51:48.360Z,0
2023-01-12T01:53:28.122Z,0
2023-01-12T01:55:07.873Z,0
2023-01-12T01:56:47.630Z,0
2023-01-12T01:58:27.417Z,0
2023-01-12T02:00:07.177Z,0
2023-01-12T02:01:46.938Z,0
2023-01-12T02:03:26.702Z,0
2023-01-12T02:05:06.479Z,0
2023-01-12T02:06:46.254Z,0
2023-01-12T02:08:26.028Z,0
2023-01-12T02:10:05.778Z,0
2023-01-12T02:11:45.545Z,0
2023-01-12T02:13:25.303Z,0
2023-01-12T02:15:05.096Z,0
2023-01-12T02:16:44.848Z,0
2023-01-12T02:18:24.626Z,0
2023-01-12T02:20:04.451Z,0
2023-01-12T02:21:44.152Z,0
2023-01-12T02:23:23.940Z,0
2023-01-12T02:25:03.694Z,0
2023-01-12T02:26:43.461Z,0
2023-01-12T02:28:23.214Z,0
2023-01-12T02:30:02.977Z,0
2023-01-12T02:31:42.745Z,0
2023-01-12T02:33:22.530Z,0
2023-01-12T02:35:02.286Z,0
2023-01-12T02:36:42.059Z,0
2023-01-12T02:38:21.831Z,0
2023-01-12T02:40:01.582Z,0
2023-01-12T02:41:41.368Z,0
2023-01-12T02:43:21.120Z,0
2023-01-12T02:45:00.899Z,0
2023-01-12T02:46:40.658Z,0
2023-01-12T02:48:20.424Z,0
2023-01-12T02:50:00.207Z,0
2023-01-12T02:51:39.978Z,0
2023-01-12T02:53:19.721Z,0
2023-01-12T02:54:59.504Z,0
2023-01-12T02:56:39.277Z,0
2023-01-12T02:58:19.040Z,0
2023-01-12T02:59:58.806Z,0
2023-01-12T03:01:38.567Z,0
2023-01-12T03:03:18.331Z,0
2023-01-12T03:04:58.096Z,0
2023-01-12T03:06:37.885Z,0
2023-01-12T03:08:17.636Z,0
2023-01-12T03:09:57.406Z,0
2023-01-12T03:11:37.179Z,0
2023-01-12T03:13:16.945Z,0
2023-01-12T03:14:56.708Z,0
2023-01-12T03:16:36.453Z,0
2023-01-12T03:18:16.266Z,0
2023-01-12T03:19:56.009Z,0
2023-01-12T03:21:35.847Z,0
2023-01-12T03:23:15.537Z,0
2023-01-12T03:24:55.318Z,0
2023-01-12T03:26:35.072Z,0
2023-01-12T03:28:14.847Z,0
2023-01-12T03:29:54.639Z,0
2023-01-12T03:31:34.374Z,0
2023-01-12T03:33:14.151Z,0
2023-01-12T03:34:53.997Z,0
2023-01-12T03:36:33.666Z,0
2023-01-12T03:38:13.456Z,0
2023-01-12T03:39:53.209Z,0
2023-01-12T03:41:32.988Z,0
2023-01-12T03:43:12.744Z,0
2023-01-12T03:44:52.522Z,0
2023-01-12T03:46:32.278Z,0
2023-01-12T03:48:12.061Z,0
2023-01-12T03:49:51.816Z,0
2023-01-12T03:51:31.580Z,0
2023-01-12T03:53:11.337Z,0
2023-01-12T03:54:51.110Z,0
2023-01-12T03:56:30.858Z,0
2023-01-12T03:58:10.625Z,0
2023-01-12T03:59:50.386Z,0
2023-01-12T04:01:30.181Z,0
2023-01-12T04:03:09.928Z,0
2023-01-12T04:04:49.682Z,0
2023-01-12T04:06:29.457Z,0
2023-01-12T04:08:09.216Z,0
2023-01-12T04:09:48.985Z,0
2023-01-12T04:11:28.757Z,0
2023-01-12T04:13:08.515Z,0
2023-01-12T04:14:48.263Z,0
2023-01-12T04:16:28.030Z,0
2023-01-12T04:18:07.794Z,0
2023-01-12T04:19:47.571Z,0
2023-01-12T04:21:27.336Z,0
2023-01-12T04:23:07.092Z,0
2023-01-12T04:24:46.853Z,0
2023-01-12T04:26:26.642Z,0
2023-01-12T04:28:06.388Z,0
2023-01-12T04:29:46.155Z,0
2023-01-12T04:31:25.906Z,0
2023-01-12T04:33:05.685Z,0
2023-01-12T04:34:45.448Z,0
2023-01-12T04:36:25.224Z,0
2023-01-12T04:38:04.962Z,0
2023-01-12T04:39:44.729Z,0
2023-01-12T04:41:24.506Z,0
2023-01-12T04:43:04.357Z,0
2023-01-12T04:44:44.027Z,0
2023-01-12T04:46:23.788Z,0
2023-01-12T04:48:03.605Z,0
2023-01-12T04:49:43.323Z,0
2023-01-12T04:51:23.092Z,0
2023-01-12T04:53:02.848Z,0
2023-01-12T04:54:42.631Z,0
2023-01-12T04:56:22.371Z,0
2023-01-12T04:58:02.156Z,0
2023-01-12T04:59:41.893Z,0
2023-01-12T05:01:21.676Z,0
2023-01-12T05:03:01.430Z,0
2023-01-12T05:04:41.250Z,0
2023-01-12T05:06:20.977Z,0
2023-01-12T05:08:00.729Z,0
2023-01-12T05:09:40.499Z,0
2023-01-12T05:11:20.265Z,0
2023-01-12T05:13:00.025Z,0
2023-01-12T05:14:39.790Z,0
2023-01-12T05:16:19.532Z,0
2023-01-12T05:17:59.311Z,0
2023-01-12T05:19:39.069Z,0
2023-01-12T05:21:18.996Z,0
2023-01-12T05:22:58.610Z,0
2023-01-12T05:24:38.380Z,0
2023-01-12T05:26:18.139Z,0
2023-01-12T05:27:57.899Z,0
2023-01-12T05:29:37.709Z,0
2023-01-12T05:31:17.438Z,0
2023-01-12T05:32:57.222Z,0
2023-01-12T05:34:36.966Z,0
2023-01-12T05:36:16.722Z,0
2023-01-12T05:37:56.557Z,0
2023-01-12T05:39:36.260Z,0
2023-01-12T05:41:16.054Z,0
2023-01-12T05:42:55.812Z,0
2023-01-12T05:44:35.543Z,0
2023-01-12T05:46:15.311Z,0
2023-01-12T05:47:55.080Z,0
2023-01-12T05:49:34.844Z,0
2023-01-12T05:51:14.595Z,0
2023-01-12T05:52:54.367Z,0
2023-01-12T05:54:34.145Z,0
2023-01-12T05:56:13.903Z,0
2023-01-12T05:57:53.654Z,0
2023-01-12T05:59:33.432Z,0
2023-01-12T06:01:13.184Z,0
2023-01-12T06:02:52.948Z,0
2023-01-12T06:04:32.711Z,0
2023-01-12T06:06:12.485Z,0
2023-01-12T06:07:52.252Z,0
2023-01-12T06:09:32.005Z,0
2023-01-12T06:11:11.770Z,0
2023-01-12T06:12:51.559Z,0
2023-01-12T06:14:31.302Z,0
2023-01-12T06:16:11.063Z,0
2023-01-12T06:17:50.856Z,0
2023-01-12T06:19:30.599Z,0
2023-01-12T06:21:10.396Z,0
2023-01-12T06:22:50.154Z,0
2023-01-12T06:24:29.904Z,0
2023-01-12T06:26:09.660Z,0
2023-01-12T06:27:49.466Z,0
2023-01-12T06:29:29.181Z,0
2023-01-12T06:31:08.968Z,0
2023-01-12T06:32:48.713Z,0
2023-01-12T06:34:28.542Z,0
2023-01-12T06:36:08.240Z,0
2023-01-12T06:37:48.001Z,0
2023-01-12T06:39:27.838Z,0
2023-01-12T06:41:07.532Z,0
2023-01-12T06:42:47.304Z,0
2023-01-12T06:44:27.065Z,0
2023-01-12T06:46:06.843Z,0
2023-01-12T06:47:46.588Z,0
2023-01-12T06:49:26.402Z,0
2023-01-12T06:51:06.125Z,0
2023-01-12T06:52:45.907Z,0
2023-01-12T06:54:25.656Z,0
2023-01-12T06:56:05.421Z,0
2023-01-12T06:57:45.177Z,0
2023-01-12T06:59:24.941Z,0
2023-01-12T07:01:04.699Z,0
2023-01-12T07:02:44.489Z,0
2023-01-12T07:04:24.234Z,0
2023-01-12T07:06:03.993Z,0
2023-01-12T07:07:43.773Z,0
2023-01-12T07:09:23.524Z,0
2023-01-12T07:11:03.316Z,0
2023-01-12T07:12:43.081Z,0
2023-01-12T07:14:22.808Z,0
2023-01-12T07:16:02.584Z,0
2023-01-12T07:17:42.341Z,0
2023-01-12T07:19:22.139Z,0
2023-01-12T07:21:01.986Z,0.51
2023-01-12T07:22:41.633Z,0
2023-01-12T07:24:21.400Z,0
2023-01-12T07:26:01.307Z,0
2023-01-12T07:27:40.925Z,0.25
2023-01-12T07:29:20.700Z,0.51
2023-01-12T07:31:00.455Z,1.02
2023-01-12T07:32:40.227Z,1.02
2023-01-12T07:34:19.993Z,1.28
2023-01-12T07:35:59.756Z,2.57
2023-01-12T07:37:39.570Z,3.86
2023-01-12T07:39:19.308Z,3.86
2023-01-12T07:40:59.070Z,5.16
2023-01-12T07:42:38.834Z,5.42
2023-01-12T07:44:18.596Z,9.83
2023-01-12T07:45:58.376Z,8.29
2023-01-12T07:47:38.124Z,8.56
2023-01-12T07:49:17.909Z,0
2023-01-12T07:50:57.688Z,18.64
2023-01-12T07:52:37.518Z,12.84
2023-01-12T07:54:17.221Z,13.13
2023-01-12T07:55:56.997Z,11.29
2023-01-12T07:57:36.778Z,9.97
2023-01-12T07:59:16.523Z,7.61
2023-01-12T08:00:56.288Z,7.08
2023-01-12T08:02:36.076Z,6.03
2023-01-12T08:04:15.863Z,7.35
2023-01-12T08:05:55.607Z,5.51
2023-01-12T08:07:35.387Z,6.29
2023-01-12T08:09:15.142Z,5.77
2023-01-12T08:12:34.695Z,6.83
2023-01-12T08:14:14.452Z,6.83
2023-01-12T08:15:54.240Z,7.9
2023-01-12T08:17:34.011Z,8.96
2023-01-12T08:19:13.779Z,9.5
2023-01-12T08:20:53.645Z,10.57
2023-01-12T08:22:33.308Z,9.78
2023-01-12T08:24:13.076Z,8.18
2023-01-12T08:25:52.850Z,7.93
2023-01-12T08:27:32.618Z,7.4
2023-01-12T08:29:12.397Z,7.4
2023-01-12T08:30:52.167Z,7.94
2023-01-12T08:32:31.992Z,8.74
2023-01-12T08:34:11.695Z,9.81
2023-01-12T08:35:51.481Z,11.62
2023-01-12T08:37:31.399Z,11.44
2023-01-12T08:39:11.099Z,10.65
2023-01-12T08:40:50.941Z,11.45
2023-01-12T08:42:30.686Z,9.85
2023-01-12T08:44:10.394Z,10.4
2023-01-12T08:45:50.099Z,9.34
2023-01-12T08:47:29.872Z,10.14
2023-01-12T08:49:09.645Z,11.5
2023-01-12T08:50:49.400Z,31.14
2023-01-12T08:52:29.184Z,16.44
2023-01-12T08:54:08.937Z,16.74
2023-01-12T08:55:48.748Z,19.2
2023-01-12T08:57:28.678Z,21.16
2023-01-12T08:59:08.405Z,20.67
2023-01-12T09:00:48.216Z,18.76
2023-01-12T09:02:27.844Z,17.14
2023-01-12T09:04:07.578Z,16.6
2023-01-12T09:05:47.337Z,16.62
2023-01-12T09:07:27.110Z,16.91
2023-01-12T09:09:06.869Z,16.65
2023-01-12T09:10:46.638Z,15.83
2023-01-12T09:12:26.412Z,16.67
2023-01-12T09:14:06.191Z,18.06
2023-01-12T09:15:45.955Z,18.36
2023-01-12T09:17:25.874Z,18.65
2023-01-12T09:19:05.662Z,16.71
2023-01-12T09:20:45.271Z,16.45
2023-01-12T09:22:25.037Z,15.62
2023-01-12T09:24:04.801Z,13.96
2023-01-12T09:25:44.579Z,13.41
2023-01-12T09:27:24.352Z,13.1
2023-01-12T09:29:04.123Z,14.24
2023-01-12T09:30:43.889Z,12.58
2023-01-12T09:32:23.656Z,10.1
2023-01-12T09:34:03.558Z,9
2023-01-12T09:35:43.259Z,11.73
2023-01-12T09:37:22.974Z,17.26
2023-01-12T09:39:02.748Z,23.43
2023-01-12T09:40:42.515Z,26.57
2023-01-12T09:42:22.274Z,25.5
2023-01-12T09:44:02.066Z,23.58
2023-01-12T09:45:41.825Z,26.43
2023-01-12T09:47:21.711Z,31.36
2023-01-12T09:49:01.433Z,45.47
2023-01-12T09:50:41.131Z,49.82
2023-01-12T09:52:20.904Z,32.13
2023-01-12T09:54:00.684Z,26.05
2023-01-12T09:55:40.433Z,32.49
2023-01-12T09:57:20.216Z,40.96
2023-01-12T09:58:59.981Z,43.84
2023-01-12T10:00:39.747Z,43.57
2023-01-12T10:02:19.531Z,41.51
2023-01-12T10:03:59.307Z,40.62
2023-01-12T10:05:39.067Z,40.31
2023-01-12T10:07:18.828Z,40.3
2023-01-12T10:08:58.613Z,40.31
2023-01-12T10:10:38.374Z,39.12
2023-01-12T10:12:18.148Z,38.83
2023-01-12T10:13:57.919Z,38.52
2023-01-12T10:15:37.672Z,38.23
2023-01-12T10:17:17.502Z,38.52
2023-01-12T10:18:57.254Z,38.18
2023-01-12T10:20:37.050Z,38.54
2023-01-12T10:22:16.830Z,38.82
2023-01-12T10:23:56.568Z,38.24
2023-01-12T10:25:36.305Z,38.23
2023-01-12T10:27:16.098Z,37.65
2023-01-12T10:28:55.841Z,38.22
2023-01-12T10:30:35.607Z,37.91
2023-01-12T10:32:15.395Z,38.23
2023-01-12T10:33:55.173Z,38.23
2023-01-12T10:35:34.933Z,38.52
2023-01-12T10:37:14.703Z,38.5
2023-01-12T10:38:54.465Z,38.23
2023-01-12T10:40:34.251Z,37.61
2023-01-12T10:42:14.016Z,37
2023-01-12T10:43:53.788Z,37.32
2023-01-12T10:45:33.554Z,40.3
2023-01-12T10:47:13.319Z,37.63
2023-01-12T10:48:53.082Z,37.04
2023-01-12T10:50:32.872Z,37.03
2023-01-12T10:52:12.685Z,37.91
2023-01-12T10:53:52.422Z,22.25
2023-01-12T10:55:32.169Z,12.93
2023-01-12T10:57:11.934Z,13.45
2023-01-12T10:58:51.711Z,14.3
2023-01-12T11:00:31.471Z,14.25
2023-01-12T11:02:11.273Z,15.08
2023-01-12T11:03:51.020Z,17.03
2023-01-12T11:05:30.792Z,17.6
2023-01-12T11:07:10.542Z,20.99
2023-01-12T11:08:50.363Z,23.57
2023-01-12T11:10:30.100Z,25.03
2023-01-12T11:12:09.870Z,28.85
2023-01-12T11:13:49.626Z,27.19
2023-01-12T11:15:29.420Z,26.05
2023-01-12T11:17:09.173Z,24.59
2023-01-12T11:18:48.933Z,22.86
2023-01-12T11:20:28.701Z,18.84
2023-01-12T11:22:08.479Z,16.82
2023-01-12T11:23:48.258Z,12.83
2023-01-12T11:25:28.025Z,10.28
2023-01-12T11:27:07.783Z,10.26
2023-01-12T11:28:47.576Z,8.58
2023-01-12T11:30:27.320Z,8.28
2023-01-12T11:32:07.113Z,11.33
2023-01-12T11:33:46.870Z,12.44
2023-01-12T11:35:26.632Z,14.39
2023-01-12T11:37:06.405Z,14.89
2023-01-12T11:38:46.182Z,13.85
2023-01-12T11:40:25.942Z,10.21
2023-01-12T11:42:05.724Z,9.09
2023-01-12T11:43:45.485Z,8.53
2023-01-12T11:45:25.255Z,9.35
2023-01-12T11:47:05.042Z,5.76
2023-01-12T11:48:44.791Z,4.37
2023-01-12T11:50:24.579Z,4.09
2023-01-12T11:52:04.337Z,4.09
2023-01-12T11:53:44.106Z,6
2023-01-12T11:55:23.875Z,11.49
2023-01-12T11:57:03.657Z,19.28
2023-01-12T11:58:43.418Z,51.1
2023-01-12T12:00:23.198Z,39.66
2023-01-12T12:02:03.018Z,34.97
2023-01-12T12:03:42.728Z,32.93
2023-01-12T12:05:22.499Z,31.16
2023-01-12T12:07:02.281Z,30.87
2023-01-12T12:08:42.038Z,29.4
2023-01-12T12:10:21.826Z,29.68
2023-01-12T12:12:01.577Z,30.56
2023-01-12T12:13:41.384Z,30.27
2023-01-12T12:15:21.127Z,29.38
2023-01-12T12:17:00.919Z,29.67
2023-01-12T12:18:40.673Z,30.55
2023-01-12T12:20:20.440Z,30.55
2023-01-12T12:22:00.203Z,31.14
2023-01-12T12:23:39.972Z,29.96
2023-01-12T12:25:19.745Z,30.84
2023-01-12T12:26:59.521Z,28.62
2023-01-12T12:28:39.293Z,21.42
2023-01-12T12:30:19.050Z,13.23
2023-01-12T12:31:58.847Z,11.2
2023-01-12T12:33:38.588Z,9.21
2023-01-12T12:35:18.362Z,5.54
2023-01-12T12:36:58.130Z,6.08
2023-01-12T12:38:37.906Z,5.24
2023-01-12T12:40:17.676Z,6.05
2023-01-12T12:41:57.451Z,7.43
2023-01-12T12:43:37.241Z,7.7
2023-01-12T12:45:17.105Z,9.08
2023-01-12T12:46:56.799Z,10.46
2023-01-12T12:48:36.531Z,9.35
2023-01-12T12:50:16.321Z,6.86
2023-01-12T12:51:56.088Z,6.57
2023-01-12T12:53:35.851Z,8.49
2023-01-12T12:55:15.613Z,12.64
2023-01-12T12:56:55.375Z,13.21
2023-01-12T12:58:35.161Z,8.5
2023-01-12T13:00:14.918Z,5.19
2023-01-12T13:01:54.683Z,4.09
2023-01-12T13:03:34.460Z,5.45
2023-01-12T13:05:14.238Z,5.99
2023-01-12T13:06:54.035Z,5.44
2023-01-12T13:08:33.778Z,6.26
2023-01-12T13:10:13.536Z,6.81
2023-01-12T13:11:53.314Z,10.65
2023-01-12T13:13:33.098Z,8.18
2023-01-12T13:15:12.898Z,6.26
2023-01-12T13:16:52.628Z,10.37
2023-01-12T13:18:32.399Z,13.13
2023-01-12T13:20:12.176Z,9.83
2023-01-12T13:21:51.941Z,7.37
2023-01-12T13:23:31.756Z,6.26
2023-01-12T13:25:11.478Z,6.26
2023-01-12T13:26:51.253Z,8.45
2023-01-12T13:28:31.063Z,7.08
2023-01-12T13:30:10.779Z,6.25
2023-01-12T13:31:50.566Z,6.25
2023-01-12T13:33:30.324Z,10.91
2023-01-12T13:35:10.087Z,6.26
2023-01-12T13:36:49.872Z,5.98
2023-01-12T13:38:29.647Z,3.25
2023-01-12T13:40:09.525Z,5.42
2023-01-12T13:41:49.185Z,4.6
2023-01-12T13:43:29.043Z,6.23
2023-01-12T13:45:08.819Z,6.23
2023-01-12T13:46:48.621Z,6.74
2023-01-12T13:48:28.242Z,4.06
2023-01-12T13:50:08.020Z,3.78
2023-01-12T13:51:47.801Z,5.13
2023-01-12T13:53:27.559Z,3.51
2023-01-12T13:55:07.380Z,2.69
2023-01-12T13:56:47.145Z,2.15
2023-01-12T13:58:26.979Z,1.88
2023-01-12T14:00:06.643Z,1.88
2023-01-12T14:01:46.443Z,1.61
2023-01-12T14:03:26.171Z,2.41
2023-01-12T14:05:05.946Z,2.68
2023-01-12T14:06:45.704Z,1.61
2023-01-12T14:08:25.469Z,1.6
2023-01-12T14:10:05.243Z,1.07
2023-01-12T14:11:45.032Z,0.8
2023-01-12T14:13:24.865Z,1.07
2023-01-12T14:15:04.690Z,1.07
2023-01-12T14:16:44.485Z,0.8
2023-01-12T14:18:24.226Z,0.8
2023-01-12T14:20:04.082Z,1.87
2023-01-12T14:21:43.800Z,1.33
2023-01-12T14:23:23.635Z,1.05
2023-01-12T14:25:03.342Z,0.8
2023-01-12T14:26:43.136Z,0.52
2023-01-12T14:28:22.834Z,0.26
2023-01-12T14:30:02.482Z,0
2023-01-12T14:31:42.293Z,0
2023-01-12T14:33:22.074Z,1.59
2023-01-12T14:35:01.797Z,1.59
2023-01-12T14:36:41.577Z,0.52
2023-01-12T14:38:21.324Z,0
2023-01-12T14:40:01.200Z,0.52
2023-01-12T14:41:40.862Z,1.32
2023-01-12T14:43:20.692Z,0.26
2023-01-12T14:45:00.421Z,0
2023-01-12T14:46:40.203Z,0.26
2023-01-12T14:48:19.946Z,0.52
2023-01-12T14:49:59.760Z,0.26
2023-01-12T14:51:39.485Z,0.26
2023-01-12T14:53:19.278Z,0.79
2023-01-12T14:54:59.068Z,0
2023-01-12T14:56:38.794Z,0
2023-01-12T14:58:18.643Z,0
2023-01-12T14:59:58.327Z,0
2023-01-12T15:01:38.200Z,0
2023-01-12T15:03:17.865Z,0
2023-01-12T15:04:57.631Z,0
2023-01-12T15:06:37.395Z,0
2023-01-12T15:08:17.155Z,0
2023-01-12T15:09:56.926Z,0
2023-01-12T15:11:36.698Z,0
2023-01-12T15:13:16.471Z,0
2023-01-12T15:14:56.230Z,0
2023-01-12T15:16:35.990Z,0
2023-01-12T15:18:15.772Z,0
2023-01-12T15:19:55.539Z,0
2023-01-12T15:21:35.300Z,0
2023-01-12T15:23:15.087Z,0
2023-01-12T15:24:54.844Z,0
2023-01-12T15:26:34.594Z,0
2023-01-12T15:28:14.364Z,2.08
2023-01-12T15:29:54.127Z,0
2023-01-12T15:31:33.901Z,0
2023-01-12T15:33:13.742Z,0
2023-01-12T15:34:53.436Z,0
2023-01-12T15:36:33.219Z,0
2023-01-12T15:38:13.125Z,0
2023-01-12T15:39:52.748Z,0
2023-01-12T15:41:32.522Z,0
2023-01-12T15:43:12.288Z,0
2023-01-12T15:44:52.049Z,0
2023-01-12T15:46:31.866Z,0
2023-01-12T15:48:11.577Z,0
2023-01-12T15:49:51.363Z,0
2023-01-12T15:51:31.122Z,0
2023-01-12T15:53:10.882Z,0
2023-01-12T15:54:50.641Z,0
2023-01-12T15:56:30.407Z,0
2023-01-12T15:58:10.180Z,0
2023-01-12T15:59:49.990Z,0
2023-01-12T16:01:29.717Z,0
2023-01-12T16:03:09.493Z,0
2023-01-12T16:04:49.248Z,0
2023-01-12T16:06:29.147Z,0
2023-01-12T16:08:08.805Z,0
2023-01-12T16:09:48.580Z,0
2023-01-12T16:11:28.362Z,0
2023-01-12T16:13:08.092Z,0
2023-01-12T16:14:47.867Z,0
2023-01-12T16:16:27.611Z,0
2023-01-12T16:18:07.391Z,0
2023-01-12T16:19:47.164Z,0
2023-01-12T16:21:26.923Z,0
2023-01-12T16:23:06.724Z,0
2023-01-12T16:24:46.454Z,0
2023-01-12T16:26:26.268Z,0
2023-01-12T16:28:05.982Z,0
2023-01-12T16:29:45.760Z,0
2023-01-12T16:31:25.535Z,0
2023-01-12T16:33:05.301Z,0
2023-01-12T16:34:45.066Z,0
2023-01-12T16:36:24.985Z,0
2023-01-12T16:38:04.598Z,0
2023-01-12T16:39:44.370Z,0
2023-01-12T16:41:24.153Z,0
2023-01-12T16:43:03.929Z,0
2023-01-12T16:44:43.678Z,0
2023-01-12T16:46:23.487Z,0
2023-01-12T16:48:03.274Z,0
2023-01-12T16:49:42.974Z,0
2023-01-12T16:51:22.727Z,0
2023-01-12T16:53:02.536Z,0
2023-01-12T16:54:42.250Z,0
2023-01-12T16:56:22.101Z,0
2023-01-12T16:58:01.825Z,0
2023-01-12T16:59:41.557Z,0
2023-01-12T17:01:21.335Z,0
2023-01-12T17:03:01.101Z,0
2023-01-12T17:04:40.869Z,0
2023-01-12T17:06:20.628Z,0
2023-01-12T17:08:00.448Z,0
2023-01-12T17:09:40.190Z,0
2023-01-12T17:11:19.960Z,0
2023-01-12T17:12:59.734Z,0
2023-01-12T17:14:39.496Z,0
2023-01-12T17:16:19.258Z,0
2023-01-12T17:17:58.999Z,0
2023-01-12T17:19:38.784Z,0
2023-01-12T17:21:18.541Z,0
2023-01-12T17:22:58.316Z,0
2023-01-12T17:24:38.078Z,0
2023-01-12T17:26:17.840Z,0
2023-01-12T17:27:57.606Z,0
2023-01-12T17:29:37.380Z,0
2023-01-12T17:31:17.158Z,0
2023-01-12T17:32:56.915Z,0
2023-01-12T17:34:36.705Z,0
2023-01-12T17:36:16.451Z,0
2023-01-12T17:37:56.255Z,0
2023-01-12T17:39:35.984Z,0
2023-01-12T17:41:15.749Z,0
2023-01-12T17:42:55.508Z,0
2023-01-12T17:44:35.297Z,0
2023-01-12T17:46:15.044Z,0
2023-01-12T17:47:54.811Z,0
2023-01-12T17:49:34.601Z,0
2023-01-12T17:51:14.353Z,0
2023-01-12T17:52:54.150Z,0
2023-01-12T17:54:33.892Z,0
2023-01-12T17:56:13.654Z,0
2023-01-12T17:57:53.480Z,0
2023-01-12T17:59:33.201Z,0
2023-01-12T18:01:12.949Z,0
2023-01-12T18:02:52.723Z,0
2023-01-12T18:04:32.512Z,0
2023-01-12T18:06:12.265Z,0
2023-01-12T18:07:52.027Z,0
2023-01-12T18:09:31.803Z,0
2023-01-12T18:11:11.575Z,0
2023-01-12T18:12:51.334Z,0
2023-01-12T18:14:31.109Z,0
2023-01-12T18:16:10.924Z,0
2023-01-12T18:17:50.639Z,0
2023-01-12T18:19:30.408Z,0
2023-01-12T18:21:10.179Z,0
2023-01-12T18:22:49.957Z,0
2023-01-12T18:24:29.694Z,0
2023-01-12T18:26:09.483Z,0
2023-01-12T18:27:49.234Z,0
2023-01-12T18:29:29.000Z,0
2023-01-12T18:31:08.785Z,0
2023-01-12T18:32:48.536Z,0
2023-01-12T18:34:28.298Z,0
2023-01-12T18:36:08.066Z,0
2023-01-12T18:37:47.952Z,0
2023-01-12T18:39:27.740Z,0
2023-01-12T18:41:07.370Z,0
2023-01-12T18:42:47.152Z,0
2023-01-12T18:44:26.913Z,0
2023-01-12T18:46:06.694Z,0
2023-01-12T18:47:46.453Z,0
2023-01-12T18:49:26.217Z,0
2023-01-12T18:51:05.988Z,0
2023-01-12T18:52:45.758Z,0
2023-01-12T18:54:25.521Z,0
2023-01-12T18:56:05.333Z,0
2023-01-12T18:57:45.047Z,0
2023-01-12T18:59:24.820Z,0
2023-01-12T19:01:04.586Z,0
2023-01-12T19:02:44.355Z,0
2023-01-12T19:04:24.125Z,0
2023-01-12T19:06:03.883Z,0
2023-01-12T19:07:43.670Z,0
2023-01-12T19:09:23.418Z,0
2023-01-12T19:11:03.192Z,0
2023-01-12T19:12:42.962Z,0
2023-01-12T19:14:22.749Z,0
2023-01-12T19:16:02.487Z,0
2023-01-12T19:17:42.290Z,0
2023-01-12T19:19:22.022Z,0
2023-01-12T19:21:01.786Z,0
2023-01-12T19:22:41.569Z,0
2023-01-12T19:24:21.337Z,0
2023-01-12T19:26:01.102Z,0
2023-01-12T19:27:40.873Z,0
2023-01-12T19:29:20.635Z,0
2023-01-12T19:31:00.409Z,0
2023-01-12T19:32:40.172Z,0
2023-01-12T19:34:19.929Z,0
2023-01-12T19:35:59.717Z,0
2023-01-12T19:37:39.469Z,0
2023-01-12T19:39:19.229Z,0
2023-01-12T19:40:59.005Z,0
2023-01-12T19:42:38.779Z,0
2023-01-12T19:44:18.560Z,0
2023-01-12T19:45:58.314Z,0
2023-01-12T19:47:38.103Z,0
2023-01-12T19:49:17.838Z,0
2023-01-12T19:50:57.629Z,0
2023-01-12T19:52:37.384Z,0
2023-01-12T19:54:17.155Z,0
2023-01-12T19:55:56.924Z,0
2023-01-12T19:57:36.681Z,0
2023-01-12T19:59:16.524Z,0
2023-01-12T20:00:56.216Z,0
2023-01-12T20:02:35.969Z,0
2023-01-12T20:04:15.789Z,0
2023-01-12T20:05:55.522Z,0
2023-01-12T20:07:35.285Z,0
2023-01-12T20:09:15.077Z,0
2023-01-12T20:10:54.876Z,0
2023-01-12T20:12:34.579Z,0
2023-01-12T20:14:14.337Z,0
2023-01-12T20:15:54.117Z,0
2023-01-12T20:17:33.885Z,0
2023-01-12T20:19:13.661Z,0
2023-01-12T20:20:53.482Z,0
2023-01-12T20:22:33.181Z,0
2023-01-12T20:24:12.959Z,0
2023-01-12T20:25:52.747Z,0
2023-01-12T20:27:32.498Z,0
2023-01-12T20:29:12.265Z,0
2023-01-12T20:30:52.031Z,0
2023-01-12T20:32:31.825Z,0
2023-01-12T20:34:11.554Z,0
2023-01-12T20:35:51.396Z,0
2023-01-12T20:37:31.187Z,0
2023-01-12T20:39:10.863Z,0
2023-01-12T20:40:50.655Z,0
2023-01-12T20:42:30.442Z,0
2023-01-12T20:44:10.209Z,0
2023-01-12T20:45:49.919Z,0
2023-01-12T20:47:29.741Z,0
2023-01-12T20:49:09.513Z,0
2023-01-12T20:50:49.311Z,0
2023-01-12T20:52:29.005Z,0
2023-01-12T20:54:08.807Z,0
2023-01-12T20:55:48.557Z,0
2023-01-12T20:57:28.303Z,0
2023-01-12T20:59:08.095Z,0
2023-01-12T21:00:47.847Z,0
2023-01-12T21:02:27.597Z,0
2023-01-12T21:04:07.370Z,0
2023-01-12T21:05:47.146Z,0
2023-01-12T21:07:26.895Z,0
2023-01-12T21:09:06.661Z,0
2023-01-12T21:10:46.477Z,0
2023-01-12T21:12:26.222Z,0
2023-01-12T21:14:05.973Z,0
2023-01-12T21:15:45.777Z,0
2023-01-12T21:17:25.546Z,0
2023-01-12T21:19:05.283Z,0
2023-01-12T21:20:45.059Z,0
2023-01-12T21:22:24.854Z,0
2023-01-12T21:24:04.629Z,0
2023-01-12T21:25:44.353Z,0
2023-01-12T21:27:24.155Z,0
2023-01-12T21:29:03.889Z,0
2023-01-12T21:30:43.661Z,0
2023-01-12T21:32:23.433Z,0
2023-01-12T21:34:03.185Z,0
2023-01-12T21:35:42.958Z,0
2023-01-12T21:37:22.725Z,0
2023-01-12T21:39:02.549Z,0
2023-01-12T21:40:42.245Z,0
2023-01-12T21:42:22.030Z,0
2023-01-12T21:44:01.790Z,0
2023-01-12T21:45:41.551Z,0
2023-01-12T21:47:21.374Z,0
2023-01-12T21:49:01.083Z,0
2023-01-12T21:50:40.966Z,0
2023-01-12T21:52:20.625Z,0
2023-01-12T21:54:00.401Z,0
2023-01-12T21:55:40.163Z,0
2023-01-12T21:57:19.942Z,0
2023-01-12T21:58:59.698Z,0
2023-01-12T22:00:39.468Z,0
2023-01-12T22:02:19.261Z,0
2023-01-12T22:03:58.988Z,0
2023-01-12T22:05:38.819Z,0
2023-01-12T22:07:18.555Z,0
2023-01-12T22:08:58.293Z,0
2023-01-12T22:10:38.065Z,0
2023-01-12T22:12:17.842Z,0
2023-01-12T22:13:57.601Z,0
2023-01-12T22:15:37.371Z,0
2023-01-12T22:17:17.128Z,0
2023-01-12T22:18:56.906Z,0
2023-01-12T22:20:36.661Z,0
2023-01-12T22:22:16.428Z,0
2023-01-12T22:23:56.219Z,0
2023-01-12T22:25:35.977Z,0
2023-01-12T22:27:15.737Z,0
2023-01-12T22:28:55.588Z,0
2023-01-12T22:30:35.281Z,0
2023-01-12T22:32:15.060Z,0
2023-01-12T22:33:54.874Z,0
2023-01-12T22:35:34.587Z,0
2023-01-12T22:37:14.346Z,0
2023-01-12T22:38:54.115Z,0
2023-01-12T22:40:33.880Z,0
2023-01-12T22:42:13.638Z,0
2023-01-12T22:43:53.417Z,0
2023-01-12T22:45:33.186Z,0
2023-01-12T22:47:12.937Z,0
2023-01-12T22:48:52.703Z,0
2023-01-12T22:50:32.483Z,0
2023-01-12T22:52:12.248Z,0
2023-01-12T22:53:52.026Z,0
2023-01-12T22:55:31.782Z,0
2023-01-12T22:57:11.544Z,0
2023-01-12T22:58:51.578Z,0
2023-01-12T23:00:31.102Z,0
2023-01-12T23:02:10.848Z,0
2023-01-12T23:03:50.623Z,0
2023-01-12T23:05:30.395Z,0
2023-01-12T23:07:10.212Z,0
2023-01-12T23:08:49.923Z,0
2023-01-12T23:10:29.678Z,0
2023-01-12T23:12:09.449Z,0
2023-01-12T23:13:49.282Z,0
2023-01-12T23:15:29.010Z,0
2023-01-12T23:17:08.820Z,0
2023-01-12T23:18:48.535Z,0
2023-01-12T23:20:28.298Z,0
2023-01-12T23:22:08.064Z,0
2023-01-12T23:23:47.837Z,0
2023-01-12T23:25:27.599Z,0
2023-01-12T23:27:07.360Z,0
2023-01-12T23:28:47.142Z,0
2023-01-12T23:30:26.906Z,0
2023-01-12T23:32:06.672Z,0
2023-01-12T23:33:46.442Z,0
2023-01-12T23:35:26.210Z,0
2023-01-12T23:37:05.966Z,0
2023-01-12T23:38:45.736Z,0
2023-01-12T23:40:25.513Z,0